sensor_id;sensor_type;location;lat;lon;timestamp;P1;durP1;ratioP1;P2;durP2;ratioP2
24521;SDS011;12680;57.804;12.190;2022-08-03T00:01:29;17.50;;;8.85;;
24521;SDS011;12680;57.804;12.190;2022-08-03T00:03:57;15.07;;;9.07;;
24521;SDS011;12680;57.804;12.190;2022-08-03T00:06:24;13.30;;;8.70;;
24521;SDS011;12680;57.804;12.190;2022-08-03T00:08:51;18.25;;;9.43;;
24521;SDS011;12680;57.804;12.190;2022-08-03T00:11:19;14.80;;;9.55;;
24521;SDS011;12680;57.804;12.190;2022-08-03T00:13:46;15.43;;;8.30;;
24521;SDS011;12680;57.804;12.190;2022-08-03T00:16:14;17.50;;;9.80;;
24521;SDS011;12680;57.804;12.190;2022-08-03T00:18:41;21.63;;;9.77;;
24521;SDS011;12680;57.804;12.190;2022-08-03T00:21:08;20.58;;;9.82;;
24521;SDS011;12680;57.804;12.190;2022-08-03T00:23:36;22.38;;;9.98;;
24521;SDS011;12680;57.804;12.190;2022-08-03T00:26:17;17.30;;;9.88;;
24521;SDS011;12680;57.804;12.190;2022-08-03T00:28:45;18.63;;;10.48;;
24521;SDS011;12680;57.804;12.190;2022-08-03T00:31:13;19.88;;;10.98;;
24521;SDS011;12680;57.804;12.190;2022-08-03T00:33:40;29.17;;;11.38;;
24521;SDS011;12680;57.804;12.190;2022-08-03T00:36:27;21.13;;;10.45;;
24521;SDS011;12680;57.804;12.190;2022-08-03T00:38:55;15.63;;;9.77;;
24521;SDS011;12680;57.804;12.190;2022-08-03T00:41:22;17.20;;;10.63;;
24521;SDS011;12680;57.804;12.190;2022-08-03T00:43:49;19.50;;;11.13;;
24521;SDS011;12680;57.804;12.190;2022-08-03T00:46:16;17.00;;;9.20;;
24521;SDS011;12680;57.804;12.190;2022-08-03T00:48:50;14.30;;;9.05;;
24521;SDS011;12680;57.804;12.190;2022-08-03T00:51:18;18.20;;;9.35;;
24521;SDS011;12680;57.804;12.190;2022-08-03T00:53:46;16.55;;;9.73;;
24521;SDS011;12680;57.804;12.190;2022-08-03T00:56:14;16.30;;;9.15;;
24521;SDS011;12680;57.804;12.190;2022-08-03T00:58:43;17.45;;;9.63;;
24521;SDS011;12680;57.804;12.190;2022-08-03T01:01:11;16.77;;;8.88;;
24521;SDS011;12680;57.804;12.190;2022-08-03T01:03:39;11.90;;;8.55;;
24521;SDS011;12680;57.804;12.190;2022-08-03T01:06:16;14.88;;;8.45;;
24521;SDS011;12680;57.804;12.190;2022-08-03T01:11:29;19.23;;;9.02;;
24521;SDS011;12680;57.804;12.190;2022-08-03T01:14:33;14.32;;;8.90;;
24521;SDS011;12680;57.804;12.190;2022-08-03T01:20:07;14.25;;;8.77;;
24521;SDS011;12680;57.804;12.190;2022-08-03T01:32:04;11.45;;;7.63;;
24521;SDS011;12680;57.804;12.190;2022-08-03T01:35:03;20.83;;;9.10;;
24521;SDS011;12680;57.804;12.190;2022-08-03T01:37:41;14.07;;;8.57;;
24521;SDS011;12680;57.804;12.190;2022-08-03T01:40:15;17.17;;;8.30;;
24521;SDS011;12680;57.804;12.190;2022-08-03T01:42:44;15.05;;;8.15;;
24521;SDS011;12680;57.804;12.190;2022-08-03T01:45:13;13.80;;;8.57;;
24521;SDS011;12680;57.804;12.190;2022-08-03T01:47:44;13.00;;;7.75;;
24521;SDS011;12680;57.804;12.190;2022-08-03T01:50:12;11.98;;;7.55;;
24521;SDS011;12680;57.804;12.190;2022-08-03T01:52:43;12.85;;;7.40;;
24521;SDS011;12680;57.804;12.190;2022-08-03T01:55:12;9.60;;;5.78;;
24521;SDS011;12680;57.804;12.190;2022-08-03T01:57:42;9.35;;;6.50;;
24521;SDS011;12680;57.804;12.190;2022-08-03T02:00:30;9.30;;;6.30;;
24521;SDS011;12680;57.804;12.190;2022-08-03T02:03:00;9.65;;;6.05;;
24521;SDS011;12680;57.804;12.190;2022-08-03T02:05:31;7.82;;;5.30;;
24521;SDS011;12680;57.804;12.190;2022-08-03T02:07:59;8.02;;;6.10;;
24521;SDS011;12680;57.804;12.190;2022-08-03T02:10:29;8.70;;;5.70;;
24521;SDS011;12680;57.804;12.190;2022-08-03T02:13:01;9.07;;;6.13;;
24521;SDS011;12680;57.804;12.190;2022-08-03T02:15:30;8.90;;;5.90;;
24521;SDS011;12680;57.804;12.190;2022-08-03T02:17:59;10.75;;;6.63;;
24521;SDS011;12680;57.804;12.190;2022-08-03T02:20:28;10.07;;;6.53;;
24521;SDS011;12680;57.804;12.190;2022-08-03T02:22:58;8.77;;;6.10;;
24521;SDS011;12680;57.804;12.190;2022-08-03T02:25:25;8.93;;;6.18;;
24521;SDS011;12680;57.804;12.190;2022-08-03T02:27:54;8.82;;;5.72;;
24521;SDS011;12680;57.804;12.190;2022-08-03T02:30:30;9.07;;;5.35;;
24521;SDS011;12680;57.804;12.190;2022-08-03T02:33:04;11.48;;;5.70;;
24521;SDS011;12680;57.804;12.190;2022-08-03T02:35:36;11.48;;;5.45;;
24521;SDS011;12680;57.804;12.190;2022-08-03T02:38:06;6.47;;;4.80;;
24521;SDS011;12680;57.804;12.190;2022-08-03T02:40:35;8.73;;;4.70;;
24521;SDS011;12680;57.804;12.190;2022-08-03T02:43:09;5.95;;;4.88;;
24521;SDS011;12680;57.804;12.190;2022-08-03T02:45:43;6.68;;;4.82;;
24521;SDS011;12680;57.804;12.190;2022-08-03T02:48:17;10.82;;;4.95;;
24521;SDS011;12680;57.804;12.190;2022-08-03T02:50:48;6.35;;;4.72;;
24521;SDS011;12680;57.804;12.190;2022-08-03T02:53:24;9.18;;;4.78;;
24521;SDS011;12680;57.804;12.190;2022-08-03T02:55:52;5.82;;;4.82;;
24521;SDS011;12680;57.804;12.190;2022-08-03T02:58:22;8.73;;;4.97;;
24521;SDS011;12680;57.804;12.190;2022-08-03T03:00:51;8.32;;;5.55;;
24521;SDS011;12680;57.804;12.190;2022-08-03T03:03:20;12.77;;;5.45;;
24521;SDS011;12680;57.804;12.190;2022-08-03T03:05:50;9.80;;;5.80;;
24521;SDS011;12680;57.804;12.190;2022-08-03T03:08:23;10.27;;;5.85;;
24521;SDS011;12680;57.804;12.190;2022-08-03T03:10:55;16.92;;;6.63;;
24521;SDS011;12680;57.804;12.190;2022-08-03T03:13:26;10.13;;;6.45;;
24521;SDS011;12680;57.804;12.190;2022-08-03T03:15:55;18.05;;;7.47;;
24521;SDS011;12680;57.804;12.190;2022-08-03T03:18:26;12.98;;;6.20;;
24521;SDS011;12680;57.804;12.190;2022-08-03T03:20:54;14.32;;;6.97;;
24521;SDS011;12680;57.804;12.190;2022-08-03T03:23:23;10.23;;;6.13;;
24521;SDS011;12680;57.804;12.190;2022-08-03T03:25:51;10.13;;;6.68;;
24521;SDS011;12680;57.804;12.190;2022-08-03T03:28:22;10.70;;;6.70;;
24521;SDS011;12680;57.804;12.190;2022-08-03T03:30:50;11.40;;;6.68;;
24521;SDS011;12680;57.804;12.190;2022-08-03T03:33:19;10.77;;;6.78;;
24521;SDS011;12680;57.804;12.190;2022-08-03T03:35:49;16.05;;;8.63;;
24521;SDS011;12680;57.804;12.190;2022-08-03T03:38:17;17.23;;;8.18;;
24521;SDS011;12680;57.804;12.190;2022-08-03T03:40:45;12.75;;;7.82;;
24521;SDS011;12680;57.804;12.190;2022-08-03T03:43:12;13.20;;;7.88;;
24521;SDS011;12680;57.804;12.190;2022-08-03T03:45:40;12.32;;;7.32;;
24521;SDS011;12680;57.804;12.190;2022-08-03T03:48:08;10.93;;;7.10;;
24521;SDS011;12680;57.804;12.190;2022-08-03T03:50:36;11.00;;;6.93;;
24521;SDS011;12680;57.804;12.190;2022-08-03T03:53:09;10.33;;;6.57;;
24521;SDS011;12680;57.804;12.190;2022-08-03T03:55:38;11.95;;;7.63;;
24521;SDS011;12680;57.804;12.190;2022-08-03T03:58:26;9.95;;;6.20;;
24521;SDS011;12680;57.804;12.190;2022-08-03T04:00:53;8.15;;;5.85;;
24521;SDS011;12680;57.804;12.190;2022-08-03T04:03:20;7.32;;;5.20;;
24521;SDS011;12680;57.804;12.190;2022-08-03T04:05:47;8.20;;;5.03;;
24521;SDS011;12680;57.804;12.190;2022-08-03T04:08:33;8.23;;;4.90;;
24521;SDS011;12680;57.804;12.190;2022-08-03T04:11:20;5.40;;;4.30;;
24521;SDS011;12680;57.804;12.190;2022-08-03T04:14:02;7.40;;;4.47;;
24521;SDS011;12680;57.804;12.190;2022-08-03T04:16:40;6.70;;;4.53;;
24521;SDS011;12680;57.804;12.190;2022-08-03T04:19:16;5.40;;;3.50;;
24521;SDS011;12680;57.804;12.190;2022-08-03T04:21:49;6.18;;;3.92;;
24521;SDS011;12680;57.804;12.190;2022-08-03T04:24:22;4.63;;;3.05;;
24521;SDS011;12680;57.804;12.190;2022-08-03T04:26:53;3.07;;;2.60;;
24521;SDS011;12680;57.804;12.190;2022-08-03T04:29:22;4.05;;;2.75;;
24521;SDS011;12680;57.804;12.190;2022-08-03T04:31:53;3.08;;;2.47;;
24521;SDS011;12680;57.804;12.190;2022-08-03T04:34:24;2.95;;;2.30;;
24521;SDS011;12680;57.804;12.190;2022-08-03T04:36:51;4.97;;;2.30;;
24521;SDS011;12680;57.804;12.190;2022-08-03T04:39:23;2.47;;;2.28;;
24521;SDS011;12680;57.804;12.190;2022-08-03T04:41:53;2.75;;;2.55;;
24521;SDS011;12680;57.804;12.190;2022-08-03T04:44:37;2.17;;;1.90;;
24521;SDS011;12680;57.804;12.190;2022-08-03T04:47:07;2.13;;;1.88;;
24521;SDS011;12680;57.804;12.190;2022-08-03T04:49:35;1.90;;;1.80;;
24521;SDS011;12680;57.804;12.190;2022-08-03T04:52:03;2.22;;;2.03;;
24521;SDS011;12680;57.804;12.190;2022-08-03T04:54:39;2.20;;;2.00;;
24521;SDS011;12680;57.804;12.190;2022-08-03T04:57:15;2.83;;;2.40;;
24521;SDS011;12680;57.804;12.190;2022-08-03T04:59:48;2.20;;;2.00;;
24521;SDS011;12680;57.804;12.190;2022-08-03T05:02:27;2.72;;;2.47;;
24521;SDS011;12680;57.804;12.190;2022-08-03T05:04:55;5.30;;;2.75;;
24521;SDS011;12680;57.804;12.190;2022-08-03T05:07:22;4.28;;;3.17;;
24521;SDS011;12680;57.804;12.190;2022-08-03T05:09:50;6.78;;;4.15;;
24521;SDS011;12680;57.804;12.190;2022-08-03T05:12:28;6.82;;;4.47;;
24521;SDS011;12680;57.804;12.190;2022-08-03T05:14:58;5.43;;;4.88;;
24521;SDS011;12680;57.804;12.190;2022-08-03T05:17:26;10.13;;;5.90;;
24521;SDS011;12680;57.804;12.190;2022-08-03T05:19:54;6.03;;;4.60;;
24521;SDS011;12680;57.804;12.190;2022-08-03T05:22:21;8.15;;;5.55;;
24521;SDS011;12680;57.804;12.190;2022-08-03T05:24:49;10.50;;;5.30;;
24521;SDS011;12680;57.804;12.190;2022-08-03T05:27:16;7.15;;;5.30;;
24521;SDS011;12680;57.804;12.190;2022-08-03T05:29:47;9.82;;;5.72;;
24521;SDS011;12680;57.804;12.190;2022-08-03T05:32:15;7.65;;;5.80;;
24521;SDS011;12680;57.804;12.190;2022-08-03T05:34:43;8.13;;;5.72;;
24521;SDS011;12680;57.804;12.190;2022-08-03T05:37:10;8.50;;;6.15;;
24521;SDS011;12680;57.804;12.190;2022-08-03T05:39:38;11.07;;;7.00;;
24521;SDS011;12680;57.804;12.190;2022-08-03T05:42:05;11.48;;;6.45;;
24521;SDS011;12680;57.804;12.190;2022-08-03T05:44:32;13.85;;;6.95;;
24521;SDS011;12680;57.804;12.190;2022-08-03T05:46:59;13.73;;;7.20;;
24521;SDS011;12680;57.804;12.190;2022-08-03T05:49:26;10.18;;;7.50;;
24521;SDS011;12680;57.804;12.190;2022-08-03T05:51:53;18.75;;;8.05;;
24521;SDS011;12680;57.804;12.190;2022-08-03T05:54:40;10.88;;;8.05;;
24521;SDS011;12680;57.804;12.190;2022-08-03T05:57:23;14.13;;;8.23;;
24521;SDS011;12680;57.804;12.190;2022-08-03T05:59:50;14.48;;;7.90;;
24521;SDS011;12680;57.804;12.190;2022-08-03T06:02:23;11.40;;;7.55;;
24521;SDS011;12680;57.804;12.190;2022-08-03T06:04:50;14.77;;;9.25;;
24521;SDS011;12680;57.804;12.190;2022-08-03T06:07:17;15.68;;;8.85;;
24521;SDS011;12680;57.804;12.190;2022-08-03T06:09:44;17.08;;;9.63;;
24521;SDS011;12680;57.804;12.190;2022-08-03T06:12:31;15.27;;;9.65;;
24521;SDS011;12680;57.804;12.190;2022-08-03T06:15:02;16.52;;;9.18;;
24521;SDS011;12680;57.804;12.190;2022-08-03T06:17:30;16.38;;;8.65;;
24521;SDS011;12680;57.804;12.190;2022-08-03T06:20:03;14.10;;;9.50;;
24521;SDS011;12680;57.804;12.190;2022-08-03T06:22:31;19.60;;;9.80;;
24521;SDS011;12680;57.804;12.190;2022-08-03T06:24:58;14.50;;;9.00;;
24521;SDS011;12680;57.804;12.190;2022-08-03T06:27:30;12.13;;;8.75;;
24521;SDS011;12680;57.804;12.190;2022-08-03T06:30:03;15.38;;;9.25;;
24521;SDS011;12680;57.804;12.190;2022-08-03T06:32:30;13.27;;;7.95;;
24521;SDS011;12680;57.804;12.190;2022-08-03T06:34:59;15.65;;;9.82;;
24521;SDS011;12680;57.804;12.190;2022-08-03T06:37:26;20.38;;;9.90;;
24521;SDS011;12680;57.804;12.190;2022-08-03T06:39:54;12.48;;;8.73;;
24521;SDS011;12680;57.804;12.190;2022-08-03T06:42:21;15.02;;;9.10;;
24521;SDS011;12680;57.804;12.190;2022-08-03T06:44:50;22.92;;;10.32;;
24521;SDS011;12680;57.804;12.190;2022-08-03T06:47:17;15.25;;;9.65;;
24521;SDS011;12680;57.804;12.190;2022-08-03T06:49:44;14.85;;;8.80;;
24521;SDS011;12680;57.804;12.190;2022-08-03T06:52:31;16.17;;;8.88;;
24521;SDS011;12680;57.804;12.190;2022-08-03T06:55:04;12.23;;;8.98;;
24521;SDS011;12680;57.804;12.190;2022-08-03T06:57:31;13.98;;;8.27;;
24521;SDS011;12680;57.804;12.190;2022-08-03T06:59:59;16.85;;;8.30;;
24521;SDS011;12680;57.804;12.190;2022-08-03T07:02:37;16.70;;;9.45;;
24521;SDS011;12680;57.804;12.190;2022-08-03T07:05:05;14.75;;;8.23;;
24521;SDS011;12680;57.804;12.190;2022-08-03T07:07:34;14.93;;;7.40;;
24521;SDS011;12680;57.804;12.190;2022-08-03T07:10:02;15.75;;;6.78;;
24521;SDS011;12680;57.804;12.190;2022-08-03T07:12:31;17.50;;;6.97;;
24521;SDS011;12680;57.804;12.190;2022-08-03T07:14:59;16.73;;;7.53;;
24521;SDS011;12680;57.804;12.190;2022-08-03T07:17:29;14.50;;;6.40;;
24521;SDS011;12680;57.804;12.190;2022-08-03T07:19:58;12.30;;;6.85;;
24521;SDS011;12680;57.804;12.190;2022-08-03T07:22:26;12.77;;;6.22;;
24521;SDS011;12680;57.804;12.190;2022-08-03T07:24:54;15.35;;;6.78;;
24521;SDS011;12680;57.804;12.190;2022-08-03T07:27:22;12.90;;;5.32;;
24521;SDS011;12680;57.804;12.190;2022-08-03T07:29:52;10.27;;;5.75;;
24521;SDS011;12680;57.804;12.190;2022-08-03T07:32:20;12.02;;;6.53;;
24521;SDS011;12680;57.804;12.190;2022-08-03T07:34:47;14.10;;;6.03;;
24521;SDS011;12680;57.804;12.190;2022-08-03T07:37:14;9.55;;;4.95;;
24521;SDS011;12680;57.804;12.190;2022-08-03T07:39:41;10.90;;;5.07;;
24521;SDS011;12680;57.804;12.190;2022-08-03T07:42:08;11.40;;;5.50;;
24521;SDS011;12680;57.804;12.190;2022-08-03T07:44:36;10.88;;;5.22;;
24521;SDS011;12680;57.804;12.190;2022-08-03T07:47:04;8.43;;;4.40;;
24521;SDS011;12680;57.804;12.190;2022-08-03T07:49:37;9.00;;;4.70;;
24521;SDS011;12680;57.804;12.190;2022-08-03T07:55:05;11.52;;;4.97;;
24521;SDS011;12680;57.804;12.190;2022-08-03T07:57:33;11.40;;;5.05;;
24521;SDS011;12680;57.804;12.190;2022-08-03T08:00:01;9.52;;;5.07;;
24521;SDS011;12680;57.804;12.190;2022-08-03T08:02:34;9.48;;;5.18;;
24521;SDS011;12680;57.804;12.190;2022-08-03T08:05:01;8.50;;;5.18;;
24521;SDS011;12680;57.804;12.190;2022-08-03T08:07:31;11.10;;;5.82;;
24521;SDS011;12680;57.804;12.190;2022-08-03T08:09:58;9.10;;;5.60;;
24521;SDS011;12680;57.804;12.190;2022-08-03T08:12:25;9.20;;;5.53;;
24521;SDS011;12680;57.804;12.190;2022-08-03T08:14:52;9.98;;;5.30;;
24521;SDS011;12680;57.804;12.190;2022-08-03T08:17:19;9.90;;;5.43;;
24521;SDS011;12680;57.804;12.190;2022-08-03T08:19:47;11.55;;;5.70;;
24521;SDS011;12680;57.804;12.190;2022-08-03T08:22:18;11.43;;;5.50;;
24521;SDS011;12680;57.804;12.190;2022-08-03T08:24:55;10.65;;;4.85;;
24521;SDS011;12680;57.804;12.190;2022-08-03T08:27:24;10.70;;;5.22;;
24521;SDS011;12680;57.804;12.190;2022-08-03T08:29:52;7.32;;;4.65;;
24521;SDS011;12680;57.804;12.190;2022-08-03T08:32:27;8.57;;;4.80;;
24521;SDS011;12680;57.804;12.190;2022-08-03T08:34:55;10.20;;;5.40;;
24521;SDS011;12680;57.804;12.190;2022-08-03T08:37:23;11.50;;;4.85;;
24521;SDS011;12680;57.804;12.190;2022-08-03T08:39:51;13.73;;;4.95;;
24521;SDS011;12680;57.804;12.190;2022-08-03T08:42:19;9.05;;;4.57;;
24521;SDS011;12680;57.804;12.190;2022-08-03T08:44:47;8.32;;;4.90;;
24521;SDS011;12680;57.804;12.190;2022-08-03T08:47:15;5.47;;;4.20;;
24521;SDS011;12680;57.804;12.190;2022-08-03T08:49:45;13.70;;;5.00;;
24521;SDS011;12680;57.804;12.190;2022-08-03T08:52:35;9.65;;;4.43;;
24521;SDS011;12680;57.804;12.190;2022-08-03T08:55:06;8.98;;;5.20;;
24521;SDS011;12680;57.804;12.190;2022-08-03T08:57:37;9.10;;;5.35;;
24521;SDS011;12680;57.804;12.190;2022-08-03T09:00:09;9.35;;;4.70;;
24521;SDS011;12680;57.804;12.190;2022-08-03T09:02:41;11.40;;;4.75;;
24521;SDS011;12680;57.804;12.190;2022-08-03T09:05:10;11.10;;;4.78;;
24521;SDS011;12680;57.804;12.190;2022-08-03T09:07:43;6.97;;;4.57;;
24521;SDS011;12680;57.804;12.190;2022-08-03T09:10:13;11.35;;;4.45;;
24521;SDS011;12680;57.804;12.190;2022-08-03T09:12:46;6.45;;;4.43;;
24521;SDS011;12680;57.804;12.190;2022-08-03T09:15:19;6.47;;;4.32;;
24521;SDS011;12680;57.804;12.190;2022-08-03T09:17:54;7.82;;;4.55;;
24521;SDS011;12680;57.804;12.190;2022-08-03T09:22:53;9.00;;;3.92;;
24521;SDS011;12680;57.804;12.190;2022-08-03T09:25:26;11.27;;;4.07;;
24521;SDS011;12680;57.804;12.190;2022-08-03T09:28:03;7.63;;;4.38;;
24521;SDS011;12680;57.804;12.190;2022-08-03T09:31:00;5.78;;;4.30;;
24521;SDS011;12680;57.804;12.190;2022-08-03T09:33:28;13.05;;;4.28;;
24521;SDS011;12680;57.804;12.190;2022-08-03T09:36:01;9.52;;;4.90;;
24521;SDS011;12680;57.804;12.190;2022-08-03T09:38:29;8.27;;;3.97;;
24521;SDS011;12680;57.804;12.190;2022-08-03T09:40:57;9.55;;;4.20;;
24521;SDS011;12680;57.804;12.190;2022-08-03T09:43:26;13.55;;;4.78;;
24521;SDS011;12680;57.804;12.190;2022-08-03T09:46:02;6.53;;;4.38;;
24521;SDS011;12680;57.804;12.190;2022-08-03T09:48:33;6.55;;;4.35;;
24521;SDS011;12680;57.804;12.190;2022-08-03T09:51:03;8.13;;;4.57;;
24521;SDS011;12680;57.804;12.190;2022-08-03T09:53:51;7.53;;;4.75;;
24521;SDS011;12680;57.804;12.190;2022-08-03T09:56:37;7.70;;;4.40;;
24521;SDS011;12680;57.804;12.190;2022-08-03T09:59:06;5.78;;;4.22;;
24521;SDS011;12680;57.804;12.190;2022-08-03T10:01:35;6.80;;;4.20;;
24521;SDS011;12680;57.804;12.190;2022-08-03T10:04:13;8.18;;;4.97;;
24521;SDS011;12680;57.804;12.190;2022-08-03T10:07:00;5.57;;;4.28;;
24521;SDS011;12680;57.804;12.190;2022-08-03T10:09:28;9.98;;;4.03;;
24521;SDS011;12680;57.804;12.190;2022-08-03T10:11:57;6.95;;;4.57;;
24521;SDS011;12680;57.804;12.190;2022-08-03T10:14:37;10.70;;;4.82;;
24521;SDS011;12680;57.804;12.190;2022-08-03T10:17:06;9.32;;;5.15;;
24521;SDS011;12680;57.804;12.190;2022-08-03T10:19:35;9.27;;;4.72;;
24521;SDS011;12680;57.804;12.190;2022-08-03T10:22:05;8.88;;;5.32;;
24521;SDS011;12680;57.804;12.190;2022-08-03T10:24:40;10.20;;;4.85;;
24521;SDS011;12680;57.804;12.190;2022-08-03T10:27:21;8.07;;;5.03;;
24521;SDS011;12680;57.804;12.190;2022-08-03T10:29:51;9.95;;;5.20;;
24521;SDS011;12680;57.804;12.190;2022-08-03T10:32:27;8.35;;;5.18;;
24521;SDS011;12680;57.804;12.190;2022-08-03T10:35:19;8.98;;;5.50;;
24521;SDS011;12680;57.804;12.190;2022-08-03T10:40:27;7.93;;;5.22;;
24521;SDS011;12680;57.804;12.190;2022-08-03T10:43:20;8.88;;;5.60;;
24521;SDS011;12680;57.804;12.190;2022-08-03T10:45:52;8.10;;;6.05;;
24521;SDS011;12680;57.804;12.190;2022-08-03T10:48:20;8.93;;;5.78;;
24521;SDS011;12680;57.804;12.190;2022-08-03T10:50:48;11.13;;;6.20;;
24521;SDS011;12680;57.804;12.190;2022-08-03T10:53:32;9.10;;;6.00;;
24521;SDS011;12680;57.804;12.190;2022-08-03T10:56:03;9.48;;;5.53;;
24521;SDS011;12680;57.804;12.190;2022-08-03T10:59:09;11.27;;;6.28;;
24521;SDS011;12680;57.804;12.190;2022-08-03T11:01:53;10.37;;;6.23;;
24521;SDS011;12680;57.804;12.190;2022-08-03T11:04:26;10.18;;;6.70;;
24521;SDS011;12680;57.804;12.190;2022-08-03T11:09:53;8.35;;;5.82;;
24521;SDS011;12680;57.804;12.190;2022-08-03T11:12:31;8.13;;;5.35;;
24521;SDS011;12680;57.804;12.190;2022-08-03T11:15:03;8.80;;;5.82;;
24521;SDS011;12680;57.804;12.190;2022-08-03T11:17:33;10.40;;;5.80;;
24521;SDS011;12680;57.804;12.190;2022-08-03T11:23:18;11.75;;;6.38;;
24521;SDS011;12680;57.804;12.190;2022-08-03T11:26:25;7.47;;;6.38;;
24521;SDS011;12680;57.804;12.190;2022-08-03T11:28:52;9.63;;;6.00;;
24521;SDS011;12680;57.804;12.190;2022-08-03T11:31:53;11.80;;;6.55;;
24521;SDS011;12680;57.804;12.190;2022-08-03T11:34:20;10.13;;;6.63;;
24521;SDS011;12680;57.804;12.190;2022-08-03T11:39:49;11.30;;;6.43;;
24521;SDS011;12680;57.804;12.190;2022-08-03T11:44:53;9.30;;;5.78;;
24521;SDS011;12680;57.804;12.190;2022-08-03T11:47:22;12.00;;;6.25;;
24521;SDS011;12680;57.804;12.190;2022-08-03T11:49:56;10.32;;;5.55;;
24521;SDS011;12680;57.804;12.190;2022-08-03T11:52:26;13.30;;;5.18;;
24521;SDS011;12680;57.804;12.190;2022-08-03T11:54:59;10.32;;;4.88;;
24521;SDS011;12680;57.804;12.190;2022-08-03T11:57:30;9.07;;;5.03;;
24521;SDS011;12680;57.804;12.190;2022-08-03T12:00:20;10.23;;;4.68;;
24521;SDS011;12680;57.804;12.190;2022-08-03T12:03:07;9.98;;;4.65;;
24521;SDS011;12680;57.804;12.190;2022-08-03T12:05:47;5.90;;;4.22;;
24521;SDS011;12680;57.804;12.190;2022-08-03T12:08:38;10.88;;;4.68;;
24521;SDS011;12680;57.804;12.190;2022-08-03T12:11:06;8.50;;;4.47;;
24521;SDS011;12680;57.804;12.190;2022-08-03T12:13:36;7.70;;;4.32;;
24521;SDS011;12680;57.804;12.190;2022-08-03T12:16:30;6.85;;;3.88;;
24521;SDS011;12680;57.804;12.190;2022-08-03T12:18:59;8.25;;;3.97;;
24521;SDS011;12680;57.804;12.190;2022-08-03T12:21:27;10.55;;;4.38;;
24521;SDS011;12680;57.804;12.190;2022-08-03T12:24:00;11.07;;;4.18;;
24521;SDS011;12680;57.804;12.190;2022-08-03T12:26:29;11.90;;;4.40;;
24521;SDS011;12680;57.804;12.190;2022-08-03T12:29:15;7.38;;;4.88;;
24521;SDS011;12680;57.804;12.190;2022-08-03T12:31:46;8.50;;;4.82;;
24521;SDS011;12680;57.804;12.190;2022-08-03T12:34:14;10.88;;;4.82;;
24521;SDS011;12680;57.804;12.190;2022-08-03T12:36:54;9.05;;;4.40;;
24521;SDS011;12680;57.804;12.190;2022-08-03T12:39:23;7.45;;;3.85;;
24521;SDS011;12680;57.804;12.190;2022-08-03T12:41:52;11.50;;;5.03;;
24521;SDS011;12680;57.804;12.190;2022-08-03T12:44:30;8.15;;;3.70;;
24521;SDS011;12680;57.804;12.190;2022-08-03T12:46:58;10.18;;;4.30;;
24521;SDS011;12680;57.804;12.190;2022-08-03T12:49:27;14.98;;;5.10;;
24521;SDS011;12680;57.804;12.190;2022-08-03T12:51:56;8.27;;;4.40;;
24521;SDS011;12680;57.804;12.190;2022-08-03T12:54:32;10.43;;;4.78;;
24521;SDS011;12680;57.804;12.190;2022-08-03T12:57:11;8.40;;;4.28;;
24521;SDS011;12680;57.804;12.190;2022-08-03T12:59:42;8.77;;;4.05;;
24521;SDS011;12680;57.804;12.190;2022-08-03T13:02:23;9.52;;;3.97;;
24521;SDS011;12680;57.804;12.190;2022-08-03T13:04:52;8.45;;;3.83;;
24521;SDS011;12680;57.804;12.190;2022-08-03T13:07:20;10.52;;;4.13;;
24521;SDS011;12680;57.804;12.190;2022-08-03T13:09:53;10.38;;;4.88;;
24521;SDS011;12680;57.804;12.190;2022-08-03T13:14:54;6.72;;;4.57;;
24521;SDS011;12680;57.804;12.190;2022-08-03T13:17:22;11.18;;;4.07;;
24521;SDS011;12680;57.804;12.190;2022-08-03T13:19:50;9.23;;;3.80;;
24521;SDS011;12680;57.804;12.190;2022-08-03T13:22:18;12.32;;;3.97;;
24521;SDS011;12680;57.804;12.190;2022-08-03T13:24:48;7.65;;;4.00;;
24521;SDS011;12680;57.804;12.190;2022-08-03T13:27:17;8.02;;;3.60;;
24521;SDS011;12680;57.804;12.190;2022-08-03T13:30:04;8.55;;;3.97;;
24521;SDS011;12680;57.804;12.190;2022-08-03T13:32:33;7.68;;;4.47;;
24521;SDS011;12680;57.804;12.190;2022-08-03T13:35:01;7.20;;;4.00;;
24521;SDS011;12680;57.804;12.190;2022-08-03T13:37:28;9.57;;;3.58;;
24521;SDS011;12680;57.804;12.190;2022-08-03T13:39:58;8.32;;;3.58;;
24521;SDS011;12680;57.804;12.190;2022-08-03T13:42:29;9.50;;;4.10;;
24521;SDS011;12680;57.804;12.190;2022-08-03T13:44:57;10.00;;;4.07;;
24521;SDS011;12680;57.804;12.190;2022-08-03T13:47:25;6.97;;;3.80;;
24521;SDS011;12680;57.804;12.190;2022-08-03T13:49:53;7.65;;;4.05;;
24521;SDS011;12680;57.804;12.190;2022-08-03T13:52:33;5.82;;;3.90;;
24521;SDS011;12680;57.804;12.190;2022-08-03T13:55:02;6.78;;;3.85;;
24521;SDS011;12680;57.804;12.190;2022-08-03T13:57:31;9.55;;;4.63;;
24521;SDS011;12680;57.804;12.190;2022-08-03T14:00:18;10.27;;;4.07;;
24521;SDS011;12680;57.804;12.190;2022-08-03T14:02:57;8.23;;;4.10;;
24521;SDS011;12680;57.804;12.190;2022-08-03T14:05:42;13.85;;;4.68;;
24521;SDS011;12680;57.804;12.190;2022-08-03T14:08:09;9.43;;;3.85;;
24521;SDS011;12680;57.804;12.190;2022-08-03T14:10:39;14.05;;;4.18;;
24521;SDS011;12680;57.804;12.190;2022-08-03T14:13:09;9.88;;;3.75;;
24521;SDS011;12680;57.804;12.190;2022-08-03T14:15:37;8.25;;;3.83;;
24521;SDS011;12680;57.804;12.190;2022-08-03T14:18:05;9.65;;;4.13;;
24521;SDS011;12680;57.804;12.190;2022-08-03T14:20:45;8.25;;;3.95;;
24521;SDS011;12680;57.804;12.190;2022-08-03T14:23:21;9.38;;;4.13;;
24521;SDS011;12680;57.804;12.190;2022-08-03T14:25:48;4.70;;;2.67;;
24521;SDS011;12680;57.804;12.190;2022-08-03T14:28:19;5.78;;;3.20;;
24521;SDS011;12680;57.804;12.190;2022-08-03T14:30:49;11.07;;;4.17;;
24521;SDS011;12680;57.804;12.190;2022-08-03T14:33:17;10.27;;;3.67;;
24521;SDS011;12680;57.804;12.190;2022-08-03T14:35:44;7.10;;;3.33;;
24521;SDS011;12680;57.804;12.190;2022-08-03T14:38:11;3.72;;;2.92;;
24521;SDS011;12680;57.804;12.190;2022-08-03T14:40:39;10.13;;;3.42;;
24521;SDS011;12680;57.804;12.190;2022-08-03T14:43:06;8.10;;;2.97;;
24521;SDS011;12680;57.804;12.190;2022-08-03T14:45:33;7.55;;;3.25;;
24521;SDS011;12680;57.804;12.190;2022-08-03T14:48:01;9.48;;;2.80;;
24521;SDS011;12680;57.804;12.190;2022-08-03T14:50:50;10.63;;;3.38;;
24521;SDS011;12680;57.804;12.190;2022-08-03T14:53:22;6.43;;;2.90;;
24521;SDS011;12680;57.804;12.190;2022-08-03T14:55:49;9.35;;;3.08;;
24521;SDS011;12680;57.804;12.190;2022-08-03T14:58:19;8.40;;;3.25;;
24521;SDS011;12680;57.804;12.190;2022-08-03T15:00:51;10.15;;;2.95;;
24521;SDS011;12680;57.804;12.190;2022-08-03T15:03:20;10.52;;;3.38;;
24521;SDS011;12680;57.804;12.190;2022-08-03T15:05:51;10.57;;;2.88;;
24521;SDS011;12680;57.804;12.190;2022-08-03T15:08:19;7.80;;;3.13;;
24521;SDS011;12680;57.804;12.190;2022-08-03T15:10:47;7.20;;;3.10;;
24521;SDS011;12680;57.804;12.190;2022-08-03T15:13:15;10.27;;;3.17;;
24521;SDS011;12680;57.804;12.190;2022-08-03T15:15:42;7.85;;;2.70;;
24521;SDS011;12680;57.804;12.190;2022-08-03T15:18:10;4.88;;;2.80;;
24521;SDS011;12680;57.804;12.190;2022-08-03T15:20:37;9.88;;;2.70;;
24521;SDS011;12680;57.804;12.190;2022-08-03T15:23:11;9.32;;;2.67;;
24521;SDS011;12680;57.804;12.190;2022-08-03T15:25:40;6.68;;;2.38;;
24521;SDS011;12680;57.804;12.190;2022-08-03T15:28:28;4.45;;;2.53;;
24521;SDS011;12680;57.804;12.190;2022-08-03T15:30:55;4.90;;;2.50;;
24521;SDS011;12680;57.804;12.190;2022-08-03T15:33:22;5.45;;;2.30;;